ADDS METAR Data INFO
IDs: Format: Raw Decoded Include TAF

Data at: 2221 UTC 24 Jun 2018

KSAZ 242215Z AUTO 08010KT 10SM CLR 23/13 A2998 RMK AO2
KSAZ 242155Z AUTO 07009G14KT 10SM CLR 23/13 A2998 RMK AO2
KSAZ 242135Z AUTO 09006KT 10SM CLR 24/14 A2999 RMK AO2
KSAZ 242115Z AUTO 11009G14KT 10SM CLR 24/13 A2999 RMK AO2
KSAZ 242055Z AUTO 09007KT 073V133 10SM CLR 23/13 A2999 RMK AO2
KSAZ 242035Z AUTO 10008KT 063V153 10SM CLR 23/13 A2999 RMK AO2
KSAZ 242015Z AUTO 08007KT 10SM CLR 23/13 A2999 RMK AO2
KSAZ 241955Z AUTO 08007KT 043V103 10SM CLR 22/13 A2999 RMK AO2
KSAZ 241935Z AUTO 07008KT 10SM CLR 22/13 A2999 RMK AO2
KSAZ 241915Z AUTO 07006KT 10SM -RA CLR 21/14 A2999 RMK AO2
KSAZ 241855Z AUTO 11007KT 083V143 10SM -RA CLR 20/12 A2999 RMK AO2
KSAZ 241835Z AUTO 09005KT 10SM CLR 20/12 A2998 RMK AO2
KSAZ 241815Z AUTO 09009KT 10SM CLR 20/12 A2998 RMK AO2
KSAZ 241755Z AUTO 10007KT 10SM SCT095 20/12 A2998 RMK AO2
KSAZ 241735Z AUTO 10007KT 10SM SCT095 21/12 A2998 RMK AO2
KSAZ 241715Z AUTO 09008KT 10SM CLR 21/13 A2998 RMK AO2
KSAZ 241655Z AUTO 07007KT 10SM CLR 23/13 A2996 RMK AO2
KSAZ 241635Z AUTO 10007KT 073V133 10SM CLR 22/13 A2996 RMK AO2
KSAZ 241615Z AUTO 11006KT 10SM CLR 21/13 A2996 RMK AO2
KSAZ 241555Z AUTO 10008KT 5SM HZ CLR 21/13 A2995 RMK AO2
KSAZ 241535Z AUTO 08007KT 10SM CLR 19/12 A2995 RMK AO2
KSAZ 241515Z AUTO 09006KT 10SM CLR 19/12 A2994 RMK AO2
KSAZ 241455Z AUTO 08008KT 10SM CLR 19/12 A2994 RMK AO2
KSAZ 241435Z AUTO 07006KT 10SM CLR 18/12 A2994 RMK AO2
KSAZ 241415Z AUTO 11006KT 10SM CLR 18/12 A2994 RMK AO2
KSAZ 241355Z AUTO 07007KT 10SM CLR 18/12 A2993 RMK AO2
KSAZ 241335Z AUTO 10008KT 10SM CLR 17/12 A2993 RMK AO2
KSAZ 241315Z AUTO 08007KT 10SM CLR 17/11 A2992 RMK AO2
KSAZ 241255Z AUTO 09007KT 10SM CLR 16/12 A2991 RMK AO2
KSAZ 241235Z AUTO 09007KT 10SM CLR 16/12 A2990 RMK AO2
KSAZ 241215Z AUTO 09006KT 10SM CLR 16/13 A2990 RMK AO2
KSAZ 241155Z AUTO 08008KT 10SM CLR 16/13 A2989 RMK AO2
KSAZ 241135Z AUTO 08006KT 10SM CLR 15/13 A2988 RMK AO2
KSAZ 241115Z AUTO 08007KT 10SM CLR 15/14 A2987 RMK AO2
KSAZ 241055Z AUTO 09004KT 10SM CLR 16/14 A2987 RMK AO2
KSAZ 241035Z AUTO 08005KT 10SM SCT055 16/14 A2986 RMK AO2
KSAZ 241015Z AUTO 09005KT 10SM SCT049 16/15 A2986 RMK AO2
KSAZ 240955Z AUTO 09005KT 10SM SCT049 16/15 A2986 RMK AO2
KSAZ 240935Z AUTO 10003KT 10SM CLR 16/15 A2985 RMK AO2
KSAZ 240915Z AUTO 09003KT 10SM CLR 16/16 A2985 RMK AO2
KSAZ 240855Z AUTO 00000KT 10SM CLR 16/16 A2984 RMK AO2
KSAZ 240835Z AUTO 00000KT 10SM CLR 17/16 A2984 RMK AO2
KSAZ 240815Z AUTO 00000KT 10SM CLR 17/16 A2983 RMK AO2
KSAZ 240755Z AUTO 00000KT 10SM CLR 17/17 A2983 RMK AO2
KSAZ 240735Z AUTO 00000KT 10SM CLR 17/16 A2982 RMK AO2
KSAZ 240715Z AUTO 00000KT 10SM CLR 18/17 A2982 RMK AO2
KSAZ 240655Z AUTO 00000KT 10SM CLR 18/17 A2981 RMK AO2
KSAZ 240635Z AUTO 00000KT 10SM CLR 18/17 A2982 RMK AO2
KSAZ 240615Z AUTO 00000KT 10SM CLR 18/16 A2982 RMK AO2
KSAZ 240555Z AUTO 00000KT 10SM CLR 19/17 A2982 RMK AO2
KSAZ 240535Z AUTO 00000KT 10SM SCT055 SCT080 BKN100 19/17 A2982 RMK AO2
KSAZ 240515Z AUTO 00000KT 10SM SCT055 BKN090 20/17 A2981 RMK AO2
KSAZ 240455Z AUTO 00000KT 10SM SCT090 SCT110 20/17 A2981 RMK AO2
KSAZ 240435Z AUTO 00000KT 10SM SCT055 SCT085 21/17 A2981 RMK AO2
KSAZ 240415Z AUTO 00000KT 10SM SCT065 SCT070 SCT110 21/17 A2980 RMK AO2 LTG DSNT NW
KSAZ 240355Z AUTO 00000KT 10SM SCT055 BKN110 21/17 A2980 RMK AO2 LTG DSNT W AND NW
KSAZ 240335Z AUTO 00000KT 10SM SCT055 22/17 A2980 RMK AO2
KSAZ 240315Z AUTO 10003KT 10SM SCT055 BKN100 21/17 A2980 RMK AO2
KSAZ 240255Z AUTO 00000KT 10SM SCT055 SCT090 22/17 A2979 RMK AO2
KSAZ 240235Z AUTO 00000KT 10SM CLR 22/17 A2978 RMK AO2
KSAZ 240215Z AUTO 00000KT 10SM SCT055 SCT085 23/17 A2977 RMK AO2
KSAZ 240155Z AUTO 00000KT 10SM SCT055 BKN075 23/17 A2977 RMK AO2 LTG DSNT NE
KSAZ 240135Z AUTO 00000KT 10SM OVC075 23/17 A2977 RMK AO2
KSAZ 240115Z AUTO 00000KT 10SM BKN075 24/16 A2976 RMK AO2
KSAZ 240055Z AUTO 00000KT 10SM CLR 24/16 A2975 RMK AO2
KSAZ 240035Z AUTO 00000KT 10SM SCT075 24/16 A2974 RMK AO2
KSAZ 240015Z AUTO 00000KT 10SM SCT075 25/16 A2974 RMK AO2
KSAZ 232355Z AUTO 14004KT 10SM CLR 26/15 A2974 RMK AO2
KSAZ 232335Z AUTO 17004KT 10SM CLR 26/15 A2974 RMK AO2
KSAZ 232315Z AUTO 17006KT 10SM CLR 27/15 A2973 RMK AO2
KSAZ 232255Z AUTO 16006KT 10SM CLR 27/14 A2973 RMK AO2
KSAZ 232235Z AUTO 16004KT 10SM CLR 26/15 A2973 RMK AO2
KSAZ 232215Z AUTO 00000KT 10SM CLR 26/14 A2974 RMK AO2 LTG DSNT N
KSAZ 232155Z AUTO 19004KT 10SM CLR 23/15 A2974 RMK AO2
KSAZ 232135Z AUTO 19007KT 10SM SCT075 SCT080 23/14 A2975 RMK AO2
KSAZ 232115Z AUTO 16004KT 10SM SCT065 BKN075 24/14 A2975 RMK AO2
KSAZ 232055Z AUTO 16007KT 10SM -RA SCT015 BKN075 22/13 A2976 RMK AO2
KSAZ 232035Z AUTO 17010G21KT 10SM SCT046 SCT075 SCT100 22/14 A2975 RMK AO2 LTG DSNT N AND S
KSAZ 232015Z AUTO 14008KT 10SM SCT048 BKN060 BKN070 24/15 A2975 RMK AO2 LTG DSNT N SE AND S
KSAZ 231955Z AUTO 15006KT 10SM VCTS SCT050 SCT110 26/13 A2976 RMK AO2 LTG DSNT N THRU SE
KSAZ 231935Z AUTO 23005KT 10SM VCTS SCT110 27/14 A2975 RMK AO2 LTG DSNT ALQDS
KSAZ 231915Z AUTO 24005KT 10SM CLR 27/16 A2975 RMK AO2
KSAZ 231855Z AUTO 23004KT 10SM SCT039 SCT048 27/16 A2976 RMK AO2 LTG DSNT E
KSAZ 231835Z AUTO 20007KT 10SM SCT050 27/16 A2976 RMK AO2
KSAZ 231815Z AUTO 24008KT 10SM SCT039 SCT050 26/16 A2976 RMK AO2
KSAZ 231755Z AUTO 22004KT 10SM CLR 26/16 A2976 RMK AO2
KSAZ 231735Z AUTO 00000KT 10SM SCT041 SCT070 27/15 A2976 RMK AO2
KSAZ 231715Z AUTO 00000KT 10SM SCT037 BKN044 BKN070 25/16 A2977 RMK AO2
KSAZ 231655Z AUTO 21003KT 10SM SCT037 SCT043 SCT060 27/16 A2977 RMK AO2
KSAZ 231635Z AUTO 00000KT 10SM SCT034 SCT049 BKN055 26/15 A2977 RMK AO2
KSAZ 231615Z AUTO 00000KT 10SM SCT034 25/16 A2977 RMK AO2
KSAZ 231555Z AUTO 00000KT 10SM SCT027 SCT046 24/16 A2977 RMK AO2
KSAZ 231535Z AUTO 00000KT 10SM SCT027 BKN046 BKN055 24/16 A2977 RMK AO2
KSAZ 231515Z AUTO 00000KT 10SM SCT025 SCT048 24/17 A2977 RMK AO2
KSAZ 231455Z AUTO 00000KT 10SM CLR 23/16 A2977 RMK AO2
KSAZ 231435Z AUTO 21003KT 10SM CLR 22/16 A2977 RMK AO2
KSAZ 231415Z AUTO 21003KT 10SM CLR 22/16 A2977 RMK AO2
KSAZ 231355Z AUTO 19005KT 10SM SCT048 21/16 A2977 RMK AO2
KSAZ 231335Z AUTO 16005KT 10SM SCT048 20/16 A2977 RMK AO2
KSAZ 231315Z AUTO 17003KT 10SM CLR 19/16 A2977 RMK AO2
KSAZ 231255Z AUTO 17004KT 10SM CLR 18/17 A2977 RMK AO2
KSAZ 231235Z AUTO 00000KT 10SM CLR 17/16 A2977 RMK AO2
KSAZ 231215Z AUTO 00000KT 10SM CLR 16/15 A2977 RMK AO2
KSAZ 231155Z AUTO 00000KT 10SM CLR 16/15 A2976 RMK AO2
KSAZ 231135Z AUTO 00000KT 10SM CLR 15/14 A2977 RMK AO2
KSAZ 231115Z AUTO 00000KT 10SM CLR 14/13 A2978 RMK AO2
KSAZ 231055Z AUTO 00000KT 10SM CLR 13/13 A2978 RMK AO2
KSAZ 231035Z AUTO 00000KT 10SM CLR 13/13 A2977 RMK AO2